Airport View

Enter AWOS ICAO identifier for current METAR.

ex. KFNL

KMIV 280154Z AUTO 00000KT 8SM OVC007 22/21 A2991 RMK AO2 SLP126 T02170206

28 Sep 2020 02:05

Frequency: 119.6

Phone: 856-327-3455

Other Area AWOS: KWWD - KDOV - N81 - KACY

TAF AMD KMIV 280137Z 2802/2824 00000KT P6SM VCSH OVC005 FM280400 00000KT 4SM BR OVC004 FM281000 00000KT 6SM BR OVC012 FM281500 19006KT P6SM BKN035